createdAt,value
2018-04-17T00:06:08.159Z,99.90
2018-04-17T00:11:37.304Z,99.90
2018-04-17T00:14:05.599Z,99.90
2018-04-17T00:20:47.050Z,99.90
2018-04-17T00:35:58.288Z,99.90
2018-04-17T00:44:45.435Z,99.90
2018-04-17T00:59:22.190Z,99.90
2018-04-17T01:01:51.205Z,99.90
2018-04-17T01:13:31.547Z,99.90
2018-04-17T01:16:00.680Z,99.90
2018-04-17T01:23:02.924Z,99.90
2018-04-17T01:25:31.109Z,99.90
2018-04-17T01:27:59.320Z,99.90
2018-04-17T01:30:27.491Z,99.90
2018-04-17T01:36:12.607Z,99.90
2018-04-17T01:38:40.761Z,99.90
2018-04-17T01:41:09.622Z,99.90
2018-04-17T01:43:37.843Z,99.90
2018-04-17T01:46:06.894Z,99.90
2018-04-17T01:48:39.045Z,99.90
2018-04-17T01:51:07.820Z,99.90
2018-04-17T01:53:36.011Z,99.90
2018-04-17T01:56:04.196Z,99.90
2018-04-17T01:58:33.269Z,99.90
2018-04-17T02:01:01.524Z,99.90
2018-04-17T02:03:29.728Z,99.90
2018-04-17T02:05:58.024Z,99.90
2018-04-17T02:08:26.275Z,99.90
2018-04-17T02:10:54.451Z,99.90
2018-04-17T02:13:22.645Z,99.90
2018-04-17T02:15:50.886Z,99.90
2018-04-17T02:18:19.630Z,99.90
2018-04-17T02:20:47.883Z,99.90
2018-04-17T02:23:18.190Z,99.90
2018-04-17T02:25:46.459Z,99.90
2018-04-17T02:28:14.761Z,99.90
2018-04-17T02:30:48.744Z,99.90
2018-04-17T02:36:32.046Z,99.90
2018-04-17T02:39:00.235Z,99.90
2018-04-17T02:41:29.206Z,99.90
2018-04-17T02:43:57.552Z,99.90
2018-04-17T02:46:26.420Z,99.90
2018-04-17T02:48:54.580Z,99.90
2018-04-17T02:51:23.510Z,99.90
2018-04-17T02:53:52.330Z,99.90
2018-04-17T02:56:21.120Z,99.90
2018-04-17T02:58:49.319Z,99.90
2018-04-17T03:01:18.236Z,99.90
2018-04-17T03:03:46.506Z,99.90
2018-04-17T03:06:15.085Z,99.90
2018-04-17T03:08:44.048Z,99.90
2018-04-17T03:11:12.229Z,99.90
2018-04-17T03:13:41.170Z,99.90
2018-04-17T03:16:09.988Z,99.90
2018-04-17T03:18:38.461Z,99.90
2018-04-17T03:21:06.650Z,99.90
2018-04-17T03:23:35.020Z,99.90
2018-04-17T03:26:03.372Z,99.90
2018-04-17T03:28:52.801Z,99.90
2018-04-17T03:31:21.000Z,99.90
2018-04-17T03:33:49.179Z,99.90
2018-04-17T03:36:19.386Z,99.90
2018-04-17T03:38:49.375Z,99.90
2018-04-17T03:41:17.559Z,99.90
2018-04-17T03:43:45.708Z,99.90
2018-04-17T03:46:14.677Z,99.90
2018-04-17T03:48:44.463Z,99.90
2018-04-17T03:51:12.618Z,99.90
2018-04-17T03:53:40.909Z,99.90
2018-04-17T03:56:09.107Z,99.90
2018-04-17T03:58:37.302Z,99.90
2018-04-17T04:01:06.247Z,99.90
2018-04-17T04:03:34.468Z,99.90
2018-04-17T04:06:05.470Z,99.90
2018-04-17T04:08:33.643Z,99.90
2018-04-17T04:11:03.393Z,99.90
2018-04-17T04:13:36.124Z,99.90
2018-04-17T04:16:05.884Z,99.90
2018-04-17T04:18:51.801Z,99.90
2018-04-17T04:24:47.008Z,99.90
2018-04-17T04:27:15.961Z,99.90
2018-04-17T04:29:44.178Z,99.90
2018-04-17T04:32:12.364Z,99.90
2018-04-17T04:34:41.796Z,99.90
2018-04-17T04:37:11.248Z,99.90
2018-04-17T04:39:39.651Z,99.90
2018-04-17T04:42:07.828Z,99.90
2018-04-17T04:44:36.012Z,99.90
2018-04-17T04:47:04.238Z,99.90
2018-04-17T04:49:32.398Z,99.90
2018-04-17T04:52:00.545Z,99.90
2018-04-17T04:54:30.275Z,99.90
2018-04-17T04:56:58.430Z,99.90
2018-04-17T04:59:26.698Z,99.90
2018-04-17T05:01:54.998Z,99.90
2018-04-17T05:04:23.296Z,99.90
2018-04-17T05:06:51.478Z,99.90
2018-04-17T05:09:19.754Z,99.90
2018-04-17T05:11:48.001Z,99.90
2018-04-17T05:14:16.982Z,99.90
2018-04-17T05:16:45.162Z,99.90
2018-04-17T05:19:14.211Z,99.90
2018-04-17T05:21:42.418Z,99.90
2018-04-17T05:24:11.750Z,99.90
2018-04-17T05:26:40.733Z,99.90
2018-04-17T05:29:09.002Z,99.90
2018-04-17T05:31:37.253Z,99.90
2018-04-17T05:34:06.531Z,99.90
2018-04-17T05:36:34.677Z,99.90
2018-04-17T05:39:02.961Z,99.90
2018-04-17T05:41:44.424Z,99.90
2018-04-17T05:47:15.819Z,99.90
2018-04-17T05:49:44.527Z,99.90
2018-04-17T05:52:12.728Z,99.90
2018-04-17T05:54:40.925Z,99.90
2018-04-17T05:57:09.829Z,99.90
2018-04-17T05:59:38.015Z,99.90
2018-04-17T06:02:06.178Z,99.90
2018-04-17T06:04:34.370Z,99.90
2018-04-17T06:07:03.289Z,99.90
2018-04-17T06:09:48.271Z,99.90
2018-04-17T06:12:16.557Z,99.90
2018-04-17T06:14:46.466Z,99.90
2018-04-17T06:17:14.641Z,99.90
2018-04-17T06:19:43.561Z,99.90
2018-04-17T06:22:12.618Z,99.90
2018-04-17T06:24:40.830Z,99.90
2018-04-17T06:27:09.894Z,99.90
2018-04-17T06:29:38.838Z,99.90
2018-04-17T06:32:06.999Z,99.90
2018-04-17T06:34:35.164Z,99.90
2018-04-17T06:37:04.278Z,99.90
2018-04-17T06:39:32.453Z,99.90
2018-04-17T06:42:00.624Z,99.90
2018-04-17T06:44:28.808Z,99.90
2018-04-17T06:46:56.979Z,99.90
2018-04-17T06:49:25.714Z,99.90
2018-04-17T06:51:55.412Z,99.90
2018-04-17T06:54:24.567Z,99.90
2018-04-17T06:56:52.749Z,99.90
2018-04-17T06:59:20.905Z,99.90
2018-04-17T07:01:49.045Z,99.90
2018-04-17T07:04:17.240Z,99.90
2018-04-17T07:06:45.452Z,99.90
2018-04-17T07:09:13.604Z,99.90
2018-04-17T07:11:41.838Z,99.90
2018-04-17T07:14:09.983Z,99.90
2018-04-17T07:16:53.265Z,99.90
2018-04-17T07:19:22.167Z,99.90
2018-04-17T07:24:55.134Z,99.90
2018-04-17T07:27:23.418Z,99.90
2018-04-17T07:29:51.625Z,99.90
2018-04-17T07:32:20.627Z,99.90
2018-04-17T07:34:48.912Z,99.90
2018-04-17T07:37:17.200Z,99.90
2018-04-17T07:42:47.263Z,99.90
2018-04-17T07:45:15.421Z,99.90
2018-04-17T07:48:02.166Z,99.90
2018-04-17T07:50:30.734Z,99.90
2018-04-17T07:52:59.838Z,99.90
2018-04-17T07:55:28.032Z,99.90
2018-04-17T08:01:24.121Z,98.20
2018-04-17T08:04:15.641Z,98.20
2018-04-17T08:06:43.863Z,99.90
2018-04-17T08:09:12.095Z,98.00
2018-04-17T08:14:40.985Z,79.60
2018-04-17T08:17:09.178Z,30.20
2018-04-17T08:19:37.438Z,6.50
2018-04-17T08:22:10.579Z,1.00
2018-04-17T08:24:38.754Z,1.00
2018-04-17T08:27:06.988Z,1.00
2018-04-17T08:29:35.168Z,1.00
2018-04-17T08:32:16.645Z,1.00
2018-04-17T08:34:57.309Z,1.00
2018-04-17T08:37:43.453Z,1.00
2018-04-17T08:43:26.820Z,1.00
2018-04-17T08:48:58.058Z,1.00
2018-04-17T08:51:26.216Z,1.00
2018-04-17T08:57:08.366Z,1.00
2018-04-17T08:59:40.955Z,1.00
2018-04-17T09:02:21.622Z,1.00
2018-04-17T09:04:49.834Z,1.00
2018-04-17T09:07:18.091Z,1.00
2018-04-17T09:10:11.993Z,1.00
2018-04-17T09:12:40.168Z,1.00
2018-04-17T09:15:31.302Z,1.00
2018-04-17T09:18:20.469Z,1.00
2018-04-17T09:21:05.629Z,1.00
2018-04-17T09:29:45.784Z,1.00
2018-04-17T09:32:14.722Z,1.00
2018-04-17T09:37:24.262Z,1.00
2018-04-17T09:39:52.986Z,1.00
2018-04-17T09:42:25.191Z,1.00
2018-04-17T09:45:04.499Z,1.00
2018-04-17T09:47:32.856Z,1.00
2018-04-17T09:50:02.527Z,1.00
2018-04-17T09:52:38.965Z,1.00
2018-04-17T09:55:11.065Z,1.00
2018-04-17T09:57:43.839Z,1.00
2018-04-17T10:00:12.016Z,1.00
2018-04-17T10:02:41.211Z,1.00
2018-04-17T10:05:09.619Z,1.00
2018-04-17T10:07:37.839Z,1.00
2018-04-17T10:10:06.016Z,1.00
2018-04-17T10:12:38.503Z,1.00
2018-04-17T10:15:09.006Z,1.00
2018-04-17T10:17:37.242Z,1.00
2018-04-17T10:20:16.241Z,1.00
2018-04-17T10:23:12.523Z,1.00
2018-04-17T10:25:40.696Z,1.00
2018-04-17T10:28:08.891Z,1.00
2018-04-17T10:31:01.004Z,1.00
2018-04-17T10:33:33.217Z,1.00
2018-04-17T10:36:01.457Z,1.00
2018-04-17T10:38:30.203Z,1.00
2018-04-17T10:40:58.512Z,1.00
2018-04-17T10:43:26.962Z,1.00
2018-04-17T10:46:03.442Z,1.00
2018-04-17T10:48:39.780Z,1.00
2018-04-17T10:51:08.749Z,1.00
2018-04-17T10:53:36.953Z,1.00
2018-04-17T10:56:05.252Z,1.00
2018-04-17T10:58:34.380Z,1.00
2018-04-17T11:01:15.936Z,1.00
2018-04-17T11:03:50.335Z,1.00
2018-04-17T11:06:18.528Z,1.00
2018-04-17T11:08:46.663Z,1.00
2018-04-17T11:11:14.880Z,1.00
2018-04-17T11:13:43.073Z,1.00
2018-04-17T11:16:26.763Z,1.00
2018-04-17T11:19:33.004Z,1.00
2018-04-17T11:22:01.582Z,1.00
2018-04-17T11:24:41.225Z,1.00
2018-04-17T11:27:10.466Z,1.00
2018-04-17T11:29:40.043Z,1.00
2018-04-17T11:32:16.426Z,1.00
2018-04-17T11:34:44.643Z,1.00
2018-04-17T11:37:40.536Z,1.00
2018-04-17T11:40:12.518Z,1.00
2018-04-17T11:42:40.685Z,1.00
2018-04-17T11:45:08.817Z,1.00
2018-04-17T11:47:36.966Z,1.00
2018-04-17T11:50:31.088Z,1.00
2018-04-17T11:52:59.262Z,1.00
2018-04-17T11:55:28.038Z,1.00
2018-04-17T11:57:57.816Z,1.00
2018-04-17T12:00:25.975Z,1.00
2018-04-17T12:02:54.902Z,1.00
2018-04-17T12:05:32.780Z,1.00
2018-04-17T12:08:03.914Z,1.00
2018-04-17T12:10:33.810Z,1.00
2018-04-17T12:13:01.980Z,1.00
2018-04-17T12:15:30.148Z,1.00
2018-04-17T12:17:58.323Z,1.00
2018-04-17T12:20:26.476Z,1.00
2018-04-17T12:22:54.670Z,1.00
2018-04-17T12:25:22.846Z,1.00
2018-04-17T12:29:36.839Z,1.00
2018-04-17T12:32:04.984Z,1.00
2018-04-17T12:34:46.607Z,1.00
2018-04-17T12:43:58.113Z,1.00
2018-04-17T12:46:26.419Z,1.00
2018-04-17T12:48:54.593Z,1.00
2018-04-17T12:51:23.912Z,1.00
2018-04-17T12:53:52.063Z,1.00
2018-04-17T12:56:25.978Z,1.00
2018-04-17T12:58:54.176Z,1.00
2018-04-17T13:01:22.481Z,1.00
2018-04-17T13:03:50.628Z,1.00
2018-04-17T13:06:18.761Z,1.00
2018-04-17T13:08:46.934Z,1.00
2018-04-17T13:11:15.073Z,1.00
2018-04-17T13:13:43.346Z,1.00
2018-04-17T13:16:12.322Z,1.00
2018-04-17T13:18:40.758Z,1.00
2018-04-17T13:21:09.007Z,1.00
2018-04-17T13:23:37.227Z,1.00
2018-04-17T13:26:13.060Z,1.00
2018-04-17T13:28:41.335Z,1.00
2018-04-17T13:31:17.164Z,1.00
2018-04-17T13:33:47.335Z,1.00
2018-04-17T13:36:15.497Z,1.00
2018-04-17T13:38:43.772Z,1.00
2018-04-17T13:41:12.017Z,1.00
2018-04-17T13:43:41.028Z,1.00
2018-04-17T13:46:09.204Z,1.00
2018-04-17T13:48:37.406Z,1.00
2018-04-17T13:51:05.600Z,1.00
2018-04-17T13:53:33.819Z,1.00
2018-04-17T13:56:02.399Z,1.00
2018-04-17T13:58:30.645Z,1.00
2018-04-17T14:00:58.801Z,1.00
2018-04-17T14:03:27.979Z,1.00
2018-04-17T14:05:56.134Z,1.00
2018-04-17T14:08:24.332Z,1.00
2018-04-17T14:10:52.515Z,1.00
2018-04-17T14:13:21.427Z,1.00
2018-04-17T14:15:50.375Z,1.00
2018-04-17T14:18:18.556Z,1.00
2018-04-17T14:20:46.744Z,1.00
2018-04-17T14:23:14.939Z,1.00
2018-04-17T14:25:43.100Z,1.00
2018-04-17T14:28:25.956Z,1.00
2018-04-17T14:30:55.044Z,1.00
2018-04-17T14:33:23.241Z,1.00
2018-04-17T14:35:51.445Z,1.00
2018-04-17T14:38:20.537Z,1.00
2018-04-17T14:40:48.717Z,1.00
2018-04-17T14:43:17.639Z,7.10
2018-04-17T14:45:45.811Z,1.00
2018-04-17T14:48:14.978Z,1.00
2018-04-17T14:50:44.104Z,99.90
2018-04-17T14:53:12.404Z,99.90
2018-04-17T14:55:40.596Z,99.90
2018-04-17T14:58:08.783Z,1.00
2018-04-17T15:00:37.218Z,99.90
2018-04-17T15:03:05.444Z,99.90
2018-04-17T15:05:33.626Z,1.00
2018-04-17T15:08:01.848Z,1.00
2018-04-17T15:10:29.999Z,1.00
2018-04-17T15:12:58.290Z,1.00
2018-04-17T15:15:26.464Z,1.00
2018-04-17T15:17:54.627Z,1.00
2018-04-17T15:20:22.811Z,1.00
2018-04-17T15:22:51.774Z,1.00
2018-04-17T15:25:20.250Z,1.00
2018-04-17T15:27:48.418Z,1.00
2018-04-17T15:30:16.586Z,1.00
2018-04-17T15:32:44.726Z,1.00
2018-04-17T15:35:12.909Z,1.00
2018-04-17T15:37:41.115Z,1.00
2018-04-17T15:40:10.135Z,1.00
2018-04-17T15:42:38.276Z,1.00
2018-04-17T15:45:06.456Z,1.00
2018-04-17T15:47:34.636Z,1.00
2018-04-17T15:50:02.797Z,1.00
2018-04-17T15:52:30.970Z,1.00
2018-04-17T15:55:00.499Z,1.00
2018-04-17T15:57:29.329Z,1.00
2018-04-17T15:59:57.537Z,1.00
2018-04-17T16:02:25.794Z,1.00
2018-04-17T16:04:54.812Z,1.00
2018-04-17T16:07:23.096Z,1.00
2018-04-17T16:09:51.296Z,1.00
2018-04-17T16:12:19.486Z,1.00
2018-04-17T16:14:47.651Z,1.00
2018-04-17T16:17:15.809Z,1.00
2018-04-17T16:19:43.967Z,1.00
2018-04-17T16:22:12.123Z,1.00
2018-04-17T16:24:40.309Z,1.00
2018-04-17T16:27:08.563Z,1.00
2018-04-17T16:29:37.536Z,1.00
2018-04-17T16:32:05.727Z,1.00
2018-04-17T16:34:34.719Z,1.00
2018-04-17T16:37:02.918Z,1.00
2018-04-17T16:39:31.095Z,1.00
2018-04-17T16:42:02.410Z,1.00
2018-04-17T16:44:30.622Z,1.00
2018-04-17T16:46:58.785Z,1.00
2018-04-17T16:49:26.991Z,1.00
2018-04-17T16:51:55.163Z,1.00
2018-04-17T16:54:23.373Z,1.00
2018-04-17T16:56:52.327Z,1.00
2018-04-17T16:59:20.499Z,1.00
2018-04-17T17:01:50.012Z,1.00
2018-04-17T17:04:18.175Z,1.00
2018-04-17T17:06:46.319Z,1.00
2018-04-17T17:09:14.506Z,1.00
2018-04-17T17:11:42.703Z,1.00
2018-04-17T17:14:10.884Z,1.00
2018-04-17T17:16:39.092Z,1.00
2018-04-17T17:19:07.709Z,1.00
2018-04-17T17:21:35.876Z,1.00
2018-04-17T17:24:04.056Z,1.00
2018-04-17T17:26:32.208Z,1.00
2018-04-17T17:29:00.401Z,1.00
2018-04-17T17:31:28.680Z,1.00
2018-04-17T17:33:56.973Z,1.00
2018-04-17T17:36:25.201Z,1.00
2018-04-17T17:38:53.377Z,1.00
2018-04-17T17:41:21.526Z,1.00
2018-04-17T17:43:50.907Z,1.00
2018-04-17T17:46:19.325Z,1.00
2018-04-17T17:48:48.215Z,1.00
2018-04-17T17:51:16.491Z,1.00
2018-04-17T17:53:45.645Z,1.00
2018-04-17T17:56:14.018Z,1.00
2018-04-17T17:58:44.485Z,1.00
2018-04-17T18:01:12.703Z,1.00
2018-04-17T18:03:40.882Z,1.00
2018-04-17T18:06:09.167Z,1.00
2018-04-17T18:08:37.545Z,1.00
2018-04-17T18:11:05.768Z,1.00
2018-04-17T18:13:34.011Z,1.00
2018-04-17T18:16:02.251Z,1.00
2018-04-17T18:18:30.438Z,1.00
2018-04-17T18:20:58.593Z,1.00
2018-04-17T18:23:26.977Z,1.00
2018-04-17T18:25:55.134Z,1.00
2018-04-17T18:28:23.354Z,1.00
2018-04-17T18:30:52.359Z,1.00
2018-04-17T18:33:28.755Z,1.00
2018-04-17T18:35:57.071Z,1.00
2018-04-17T18:38:25.887Z,1.00
2018-04-17T18:40:54.230Z,1.00
2018-04-17T18:43:25.184Z,1.00
2018-04-17T18:45:53.403Z,1.00
2018-04-17T18:48:21.792Z,1.00
2018-04-17T18:50:52.209Z,1.00
2018-04-17T18:53:21.324Z,1.00
2018-04-17T18:55:49.479Z,1.00
2018-04-17T18:58:19.409Z,1.00
2018-04-17T19:00:47.641Z,1.00
2018-04-17T19:03:16.033Z,1.00
2018-04-17T19:05:44.745Z,1.00
2018-04-17T19:08:12.974Z,1.00
2018-04-17T19:10:42.133Z,1.00
2018-04-17T19:13:10.437Z,1.00
2018-04-17T19:15:38.764Z,1.00
2018-04-17T19:18:07.649Z,1.00
2018-04-17T19:20:36.056Z,1.00
2018-04-17T19:23:05.212Z,1.00
2018-04-17T19:25:34.481Z,1.00
2018-04-17T19:28:05.326Z,1.00
2018-04-17T19:30:33.908Z,1.00
2018-04-17T19:33:02.361Z,1.00
2018-04-17T19:35:30.703Z,1.00
2018-04-17T19:37:58.986Z,1.00
2018-04-17T19:40:27.295Z,1.00
2018-04-17T19:42:56.253Z,1.00
2018-04-17T19:45:32.714Z,1.00
2018-04-17T19:48:00.947Z,1.00
2018-04-17T19:50:29.128Z,1.00
2018-04-17T19:52:57.334Z,1.00
2018-04-17T19:55:25.537Z,1.00
2018-04-17T19:57:53.706Z,1.00
2018-04-17T20:00:21.932Z,1.00
2018-04-17T20:02:50.103Z,1.00
2018-04-17T20:05:18.260Z,1.00
2018-04-17T20:07:46.396Z,1.00
2018-04-17T20:10:15.082Z,1.00
2018-04-17T20:12:44.360Z,1.00
2018-04-17T20:15:18.837Z,1.00
2018-04-17T20:17:47.066Z,1.00
2018-04-17T20:20:26.488Z,1.00
2018-04-17T20:23:01.116Z,1.00
2018-04-17T20:25:29.320Z,1.00
2018-04-17T20:27:57.477Z,1.00
2018-04-17T20:30:26.000Z,1.00
2018-04-17T20:32:54.906Z,1.00
2018-04-17T20:35:26.513Z,1.00
2018-04-17T20:38:02.263Z,1.00
2018-04-17T20:40:30.532Z,1.00
2018-04-17T20:43:12.465Z,1.00
2018-04-17T20:45:45.449Z,1.00
2018-04-17T20:48:38.936Z,1.00
2018-04-17T20:54:14.090Z,1.00
2018-04-17T20:57:13.684Z,1.00
2018-04-17T20:59:42.600Z,1.00
2018-04-17T21:02:24.802Z,1.00
2018-04-17T21:05:04.126Z,1.00
2018-04-17T21:07:38.624Z,1.00
2018-04-17T21:10:33.470Z,1.00
2018-04-17T21:13:16.379Z,1.00
2018-04-17T21:16:13.859Z,1.00
2018-04-17T21:18:46.673Z,1.00
2018-04-17T21:21:15.688Z,1.00
2018-04-17T21:23:46.422Z,1.00
2018-04-17T21:26:15.674Z,1.00
2018-04-17T21:28:43.882Z,1.00
2018-04-17T21:31:12.108Z,1.00
2018-04-17T21:33:40.546Z,1.00
2018-04-17T21:36:09.133Z,1.00
2018-04-17T21:38:40.070Z,1.00
2018-04-17T21:41:08.225Z,1.00
2018-04-17T21:43:37.147Z,1.00
2018-04-17T21:46:05.362Z,1.00
2018-04-17T21:48:33.518Z,1.00
2018-04-17T21:51:01.670Z,1.00
2018-04-17T21:53:29.845Z,1.00
2018-04-17T21:55:58.163Z,1.00
2018-04-17T21:58:33.090Z,1.00
2018-04-17T22:01:02.130Z,1.00
2018-04-17T22:03:30.295Z,1.00
2018-04-17T22:05:58.500Z,1.00
2018-04-17T22:08:26.709Z,1.00
2018-04-17T22:10:54.962Z,1.00
2018-04-17T22:13:24.287Z,1.00
2018-04-17T22:16:05.500Z,1.00
2018-04-17T22:18:46.743Z,1.00
2018-04-17T22:21:28.873Z,1.00
2018-04-17T22:23:57.055Z,1.00
2018-04-17T22:26:25.210Z,1.00
2018-04-17T22:28:54.137Z,1.00
2018-04-17T22:31:29.873Z,1.00
2018-04-17T22:33:58.229Z,1.00
2018-04-17T22:36:27.153Z,1.00
2018-04-17T22:38:55.346Z,1.00
2018-04-17T22:41:23.506Z,1.00
2018-04-17T22:43:51.785Z,1.00
2018-04-17T22:46:46.363Z,1.00
2018-04-17T22:49:21.250Z,1.00
2018-04-17T22:51:50.118Z,1.00
2018-04-17T22:54:18.259Z,1.00
2018-04-17T22:56:46.431Z,1.00
2018-04-17T23:02:20.176Z,1.00
2018-04-17T23:04:48.359Z,1.00
2018-04-17T23:07:16.490Z,1.00
2018-04-17T23:09:51.538Z,1.00
2018-04-17T23:12:32.643Z,1.00
2018-04-17T23:15:00.810Z,1.00
2018-04-17T23:17:28.953Z,1.00
2018-04-17T23:20:15.942Z,2.80
2018-04-17T23:22:44.076Z,2.90
2018-04-17T23:25:12.282Z,6.80
2018-04-17T23:27:42.941Z,10.50
2018-04-17T23:30:30.724Z,10.50
2018-04-17T23:32:58.901Z,10.30
2018-04-17T23:35:46.300Z,9.60
2018-04-17T23:38:38.082Z,9.50
2018-04-17T23:41:06.286Z,8.80
2018-04-17T23:43:34.573Z,8.80
2018-04-17T23:46:02.766Z,10.70
2018-04-17T23:48:30.929Z,10.10
2018-04-17T23:50:59.896Z,10.60
2018-04-17T23:53:28.041Z,10.60
2018-04-17T23:55:56.186Z,11.40
2018-04-17T23:58:25.142Z,16.50
